Terminal Aerodrome Forecast
Issued by NWS

Home | Current Version | Previous Version | Text Only | Print | Product List | Glossary On
Versions: 1 2 3 4 5 6 7 8 9 10 11 12 13 14 15 16 17 18 19 20 21 22 23 24 25 26
000
FTUS46 KSEW 050903 AAA
TAFSEA
TAF AMD
KSEA 050903Z 0509/0612 VRB03KT P6SM FEW050 SCT200
     FM051200 19005KT P6SM BKN012 BKN030
     FM051500 19006KT P6SM BKN022 BKN035
     FM051800 21008KT P6SM SCT035 BKN050
     FM052100 22010KT P6SM VCSH SCT035 BKN050
     FM060700 19006KT P6SM BKN015=

USA.gov is the U.S. government's official web portal to all federal, state and local government web resources and services.